sensor_id;sensor_type;location;lat;lon;timestamp;temperature;humidity
39019;DHT22;24786;51.984;5.872;2023-09-19T00:01:42;15.30;99.90
39019;DHT22;24786;51.984;5.872;2023-09-19T00:04:11;15.30;99.90
39019;DHT22;24786;51.984;5.872;2023-09-19T00:06:38;15.30;99.90
39019;DHT22;24786;51.984;5.872;2023-09-19T00:09:03;15.20;99.90
39019;DHT22;24786;51.984;5.872;2023-09-19T00:11:29;15.20;99.90
39019;DHT22;24786;51.984;5.872;2023-09-19T00:13:54;15.20;99.90
39019;DHT22;24786;51.984;5.872;2023-09-19T00:16:20;15.20;99.90
39019;DHT22;24786;51.984;5.872;2023-09-19T00:18:46;15.10;99.90
39019;DHT22;24786;51.984;5.872;2023-09-19T00:21:11;15.20;99.90
39019;DHT22;24786;51.984;5.872;2023-09-19T00:23:37;15.20;99.90
39019;DHT22;24786;51.984;5.872;2023-09-19T00:26:03;15.10;99.90
39019;DHT22;24786;51.984;5.872;2023-09-19T00:28:29;15.20;99.90
39019;DHT22;24786;51.984;5.872;2023-09-19T00:30:55;15.20;99.90
39019;DHT22;24786;51.984;5.872;2023-09-19T00:33:21;15.20;99.90
39019;DHT22;24786;51.984;5.872;2023-09-19T00:35:47;15.20;99.90
39019;DHT22;24786;51.984;5.872;2023-09-19T00:38:13;15.20;99.90
39019;DHT22;24786;51.984;5.872;2023-09-19T00:40:45;15.20;99.90
39019;DHT22;24786;51.984;5.872;2023-09-19T00:43:11;15.20;99.90
39019;DHT22;24786;51.984;5.872;2023-09-19T00:45:36;15.20;99.90
39019;DHT22;24786;51.984;5.872;2023-09-19T00:48:04;15.20;99.90
39019;DHT22;24786;51.984;5.872;2023-09-19T00:50:36;15.20;99.90
39019;DHT22;24786;51.984;5.872;2023-09-19T00:53:01;15.20;99.90
39019;DHT22;24786;51.984;5.872;2023-09-19T00:55:33;15.30;99.90
39019;DHT22;24786;51.984;5.872;2023-09-19T00:57:59;15.30;99.90
39019;DHT22;24786;51.984;5.872;2023-09-19T01:00:25;15.30;99.90
39019;DHT22;24786;51.984;5.872;2023-09-19T01:02:51;15.30;99.90
39019;DHT22;24786;51.984;5.872;2023-09-19T01:05:16;15.30;99.90
39019;DHT22;24786;51.984;5.872;2023-09-19T01:07:43;15.40;99.90
39019;DHT22;24786;51.984;5.872;2023-09-19T01:10:14;15.40;99.90
39019;DHT22;24786;51.984;5.872;2023-09-19T01:18:07;15.30;99.90
39019;DHT22;24786;51.984;5.872;2023-09-19T01:20:40;15.30;99.90
39019;DHT22;24786;51.984;5.872;2023-09-19T01:26:04;15.20;99.90
39019;DHT22;24786;51.984;5.872;2023-09-19T01:28:32;15.20;99.90
39019;DHT22;24786;51.984;5.872;2023-09-19T01:31:02;15.20;99.90
39019;DHT22;24786;51.984;5.872;2023-09-19T01:33:28;15.10;99.90
39019;DHT22;24786;51.984;5.872;2023-09-19T01:35:59;15.10;99.90
39019;DHT22;24786;51.984;5.872;2023-09-19T01:38:24;15.10;99.90
39019;DHT22;24786;51.984;5.872;2023-09-19T01:40:57;15.10;99.90
39019;DHT22;24786;51.984;5.872;2023-09-19T01:43:33;15.10;99.90
39019;DHT22;24786;51.984;5.872;2023-09-19T01:48:35;15.10;99.90
39019;DHT22;24786;51.984;5.872;2023-09-19T01:53:33;15.10;99.90
39019;DHT22;24786;51.984;5.872;2023-09-19T01:56:00;15.20;99.90
39019;DHT22;24786;51.984;5.872;2023-09-19T01:58:30;15.10;99.90
39019;DHT22;24786;51.984;5.872;2023-09-19T02:00:58;15.10;99.90
39019;DHT22;24786;51.984;5.872;2023-09-19T02:03:24;15.20;99.90
39019;DHT22;24786;51.984;5.872;2023-09-19T02:05:52;15.20;99.90
39019;DHT22;24786;51.984;5.872;2023-09-19T02:08:19;15.20;99.90
39019;DHT22;24786;51.984;5.872;2023-09-19T02:10:45;15.10;99.90
39019;DHT22;24786;51.984;5.872;2023-09-19T02:13:17;15.20;99.90
39019;DHT22;24786;51.984;5.872;2023-09-19T02:15:43;15.10;99.90
39019;DHT22;24786;51.984;5.872;2023-09-19T02:18:10;15.10;99.90
39019;DHT22;24786;51.984;5.872;2023-09-19T02:20:36;15.00;99.90
39019;DHT22;24786;51.984;5.872;2023-09-19T02:23:02;14.90;99.90
39019;DHT22;24786;51.984;5.872;2023-09-19T02:25:28;14.90;99.90
39019;DHT22;24786;51.984;5.872;2023-09-19T02:27:54;14.90;99.90
39019;DHT22;24786;51.984;5.872;2023-09-19T02:30:20;14.90;99.90
39019;DHT22;24786;51.984;5.872;2023-09-19T02:32:50;14.80;99.90
39019;DHT22;24786;51.984;5.872;2023-09-19T02:35:16;14.80;99.90
39019;DHT22;24786;51.984;5.872;2023-09-19T02:37:45;14.70;99.90
39019;DHT22;24786;51.984;5.872;2023-09-19T02:40:10;14.70;99.90
39019;DHT22;24786;51.984;5.872;2023-09-19T02:42:46;14.60;99.90
39019;DHT22;24786;51.984;5.872;2023-09-19T02:45:14;14.70;99.90
39019;DHT22;24786;51.984;5.872;2023-09-19T02:47:43;14.60;99.90
39019;DHT22;24786;51.984;5.872;2023-09-19T02:50:08;14.60;99.90
39019;DHT22;24786;51.984;5.872;2023-09-19T02:52:36;14.60;99.90
39019;DHT22;24786;51.984;5.872;2023-09-19T02:55:02;14.50;99.90
39019;DHT22;24786;51.984;5.872;2023-09-19T02:57:29;14.50;99.90
39019;DHT22;24786;51.984;5.872;2023-09-19T02:59:56;14.40;99.90
39019;DHT22;24786;51.984;5.872;2023-09-19T03:02:22;14.40;99.90
39019;DHT22;24786;51.984;5.872;2023-09-19T03:04:49;14.40;99.90
39019;DHT22;24786;51.984;5.872;2023-09-19T03:07:16;14.40;99.90
39019;DHT22;24786;51.984;5.872;2023-09-19T03:09:42;14.40;99.90
39019;DHT22;24786;51.984;5.872;2023-09-19T03:12:08;14.40;99.90
39019;DHT22;24786;51.984;5.872;2023-09-19T03:14:34;14.30;99.90
39019;DHT22;24786;51.984;5.872;2023-09-19T03:17:00;14.30;99.90
39019;DHT22;24786;51.984;5.872;2023-09-19T03:19:26;14.30;99.90
39019;DHT22;24786;51.984;5.872;2023-09-19T03:21:52;14.20;99.90
39019;DHT22;24786;51.984;5.872;2023-09-19T03:24:18;14.20;99.90
39019;DHT22;24786;51.984;5.872;2023-09-19T03:26:44;14.20;99.90
39019;DHT22;24786;51.984;5.872;2023-09-19T03:29:10;14.20;99.90
39019;DHT22;24786;51.984;5.872;2023-09-19T03:31:36;14.10;99.90
39019;DHT22;24786;51.984;5.872;2023-09-19T03:34:04;14.10;99.90
39019;DHT22;24786;51.984;5.872;2023-09-19T03:36:30;14.10;99.90
39019;DHT22;24786;51.984;5.872;2023-09-19T03:38:55;14.00;99.90
39019;DHT22;24786;51.984;5.872;2023-09-19T03:41:21;14.00;99.90
39019;DHT22;24786;51.984;5.872;2023-09-19T03:43:46;14.00;99.90
39019;DHT22;24786;51.984;5.872;2023-09-19T03:46:12;13.90;99.90
39019;DHT22;24786;51.984;5.872;2023-09-19T03:48:40;13.90;99.90
39019;DHT22;24786;51.984;5.872;2023-09-19T03:51:05;13.90;99.90
39019;DHT22;24786;51.984;5.872;2023-09-19T03:53:31;13.90;99.90
39019;DHT22;24786;51.984;5.872;2023-09-19T03:55:56;13.90;99.90
39019;DHT22;24786;51.984;5.872;2023-09-19T03:58:22;13.80;99.90
39019;DHT22;24786;51.984;5.872;2023-09-19T04:00:48;13.80;99.90
39019;DHT22;24786;51.984;5.872;2023-09-19T04:03:15;13.80;99.90
39019;DHT22;24786;51.984;5.872;2023-09-19T04:05:46;13.70;99.90
39019;DHT22;24786;51.984;5.872;2023-09-19T04:08:12;13.80;99.90
39019;DHT22;24786;51.984;5.872;2023-09-19T04:10:37;13.80;99.90
39019;DHT22;24786;51.984;5.872;2023-09-19T04:13:03;13.80;99.90
39019;DHT22;24786;51.984;5.872;2023-09-19T04:15:29;13.70;99.90
39019;DHT22;24786;51.984;5.872;2023-09-19T04:17:54;13.70;99.90
39019;DHT22;24786;51.984;5.872;2023-09-19T04:20:20;13.70;99.90
39019;DHT22;24786;51.984;5.872;2023-09-19T04:22:48;13.70;99.90
39019;DHT22;24786;51.984;5.872;2023-09-19T04:25:13;13.70;99.90
39019;DHT22;24786;51.984;5.872;2023-09-19T04:27:39;13.70;99.90
39019;DHT22;24786;51.984;5.872;2023-09-19T04:30:07;13.70;99.90
39019;DHT22;24786;51.984;5.872;2023-09-19T04:32:37;13.70;99.90
39019;DHT22;24786;51.984;5.872;2023-09-19T04:35:08;13.70;99.90
39019;DHT22;24786;51.984;5.872;2023-09-19T04:37:37;13.70;99.90
39019;DHT22;24786;51.984;5.872;2023-09-19T04:40:04;13.70;99.90
39019;DHT22;24786;51.984;5.872;2023-09-19T04:42:31;13.70;99.90
39019;DHT22;24786;51.984;5.872;2023-09-19T04:44:57;13.70;99.90
39019;DHT22;24786;51.984;5.872;2023-09-19T04:47:22;13.60;99.90
39019;DHT22;24786;51.984;5.872;2023-09-19T04:49:47;13.70;99.90
39019;DHT22;24786;51.984;5.872;2023-09-19T04:52:13;13.60;99.90
39019;DHT22;24786;51.984;5.872;2023-09-19T04:54:41;13.60;99.90
39019;DHT22;24786;51.984;5.872;2023-09-19T04:57:06;13.60;99.90
39019;DHT22;24786;51.984;5.872;2023-09-19T04:59:32;13.70;99.90
39019;DHT22;24786;51.984;5.872;2023-09-19T05:01:58;13.60;99.90
39019;DHT22;24786;51.984;5.872;2023-09-19T05:04:23;13.60;99.90
39019;DHT22;24786;51.984;5.872;2023-09-19T05:06:49;13.60;99.90
39019;DHT22;24786;51.984;5.872;2023-09-19T05:09:14;13.70;99.90
39019;DHT22;24786;51.984;5.872;2023-09-19T05:11:40;13.70;99.90
39019;DHT22;24786;51.984;5.872;2023-09-19T05:14:06;13.70;99.90
39019;DHT22;24786;51.984;5.872;2023-09-19T05:16:31;13.60;99.90
39019;DHT22;24786;51.984;5.872;2023-09-19T05:18:57;13.60;99.90
39019;DHT22;24786;51.984;5.872;2023-09-19T05:21:25;13.60;99.90
39019;DHT22;24786;51.984;5.872;2023-09-19T05:23:54;13.60;99.90
39019;DHT22;24786;51.984;5.872;2023-09-19T05:26:19;13.50;99.90
39019;DHT22;24786;51.984;5.872;2023-09-19T05:28:46;13.60;99.90
39019;DHT22;24786;51.984;5.872;2023-09-19T05:31:13;13.60;99.90
39019;DHT22;24786;51.984;5.872;2023-09-19T05:33:39;13.70;99.90
39019;DHT22;24786;51.984;5.872;2023-09-19T05:36:05;13.70;99.90
39019;DHT22;24786;51.984;5.872;2023-09-19T05:38:30;13.70;99.90
39019;DHT22;24786;51.984;5.872;2023-09-19T05:40:56;13.70;99.90
39019;DHT22;24786;51.984;5.872;2023-09-19T05:43:21;13.70;99.90
39019;DHT22;24786;51.984;5.872;2023-09-19T05:45:47;13.70;99.90
39019;DHT22;24786;51.984;5.872;2023-09-19T05:48:13;13.80;99.90
39019;DHT22;24786;51.984;5.872;2023-09-19T05:50:41;13.80;99.90
39019;DHT22;24786;51.984;5.872;2023-09-19T05:53:06;13.90;99.90
39019;DHT22;24786;51.984;5.872;2023-09-19T05:55:32;13.90;99.90
39019;DHT22;24786;51.984;5.872;2023-09-19T05:57:58;13.90;99.90
39019;DHT22;24786;51.984;5.872;2023-09-19T06:00:24;13.80;99.90
39019;DHT22;24786;51.984;5.872;2023-09-19T06:02:53;13.90;99.90
39019;DHT22;24786;51.984;5.872;2023-09-19T06:05:19;13.90;99.90
39019;DHT22;24786;51.984;5.872;2023-09-19T06:07:45;13.90;99.90
39019;DHT22;24786;51.984;5.872;2023-09-19T06:10:10;14.00;99.90
39019;DHT22;24786;51.984;5.872;2023-09-19T06:12:39;14.00;99.90
39019;DHT22;24786;51.984;5.872;2023-09-19T06:15:05;14.00;99.90
39019;DHT22;24786;51.984;5.872;2023-09-19T06:17:31;14.00;99.90
39019;DHT22;24786;51.984;5.872;2023-09-19T06:19:57;14.00;99.90
39019;DHT22;24786;51.984;5.872;2023-09-19T06:22:22;14.00;99.90
39019;DHT22;24786;51.984;5.872;2023-09-19T06:24:49;14.10;99.90
39019;DHT22;24786;51.984;5.872;2023-09-19T06:27:15;14.20;99.90
39019;DHT22;24786;51.984;5.872;2023-09-19T06:29:40;14.10;99.90
39019;DHT22;24786;51.984;5.872;2023-09-19T06:32:07;14.10;99.90
39019;DHT22;24786;51.984;5.872;2023-09-19T06:34:33;14.20;99.90
39019;DHT22;24786;51.984;5.872;2023-09-19T06:36:59;14.30;99.90
39019;DHT22;24786;51.984;5.872;2023-09-19T06:39:24;14.30;99.90
39019;DHT22;24786;51.984;5.872;2023-09-19T06:41:51;14.30;99.90
39019;DHT22;24786;51.984;5.872;2023-09-19T06:44:19;14.40;99.90
39019;DHT22;24786;51.984;5.872;2023-09-19T06:46:47;14.40;99.90
39019;DHT22;24786;51.984;5.872;2023-09-19T06:49:17;14.40;99.90
39019;DHT22;24786;51.984;5.872;2023-09-19T06:51:42;14.40;99.90
39019;DHT22;24786;51.984;5.872;2023-09-19T06:54:09;14.50;99.90
39019;DHT22;24786;51.984;5.872;2023-09-19T06:56:35;14.50;99.90
39019;DHT22;24786;51.984;5.872;2023-09-19T06:59:00;14.50;99.90
39019;DHT22;24786;51.984;5.872;2023-09-19T07:01:27;14.60;99.90
39019;DHT22;24786;51.984;5.872;2023-09-19T07:03:53;14.60;99.90
39019;DHT22;24786;51.984;5.872;2023-09-19T07:06:19;14.70;99.90
39019;DHT22;24786;51.984;5.872;2023-09-19T07:08:44;14.70;99.90
39019;DHT22;24786;51.984;5.872;2023-09-19T07:11:10;14.70;99.90
39019;DHT22;24786;51.984;5.872;2023-09-19T07:13:38;14.80;99.90
39019;DHT22;24786;51.984;5.872;2023-09-19T07:16:03;14.80;99.90
39019;DHT22;24786;51.984;5.872;2023-09-19T07:18:29;14.90;99.90
39019;DHT22;24786;51.984;5.872;2023-09-19T07:20:57;14.90;99.90
39019;DHT22;24786;51.984;5.872;2023-09-19T07:23:30;14.90;99.90
39019;DHT22;24786;51.984;5.872;2023-09-19T07:26:03;14.90;99.90
39019;DHT22;24786;51.984;5.872;2023-09-19T07:28:30;15.00;99.90
39019;DHT22;24786;51.984;5.872;2023-09-19T07:30:56;15.10;99.90
39019;DHT22;24786;51.984;5.872;2023-09-19T07:33:21;15.20;99.90
39019;DHT22;24786;51.984;5.872;2023-09-19T07:35:47;15.20;99.90
39019;DHT22;24786;51.984;5.872;2023-09-19T07:38:12;15.20;99.90
39019;DHT22;24786;51.984;5.872;2023-09-19T07:40:38;15.20;99.90
39019;DHT22;24786;51.984;5.872;2023-09-19T07:43:03;15.30;99.90
39019;DHT22;24786;51.984;5.872;2023-09-19T07:45:30;15.40;99.90
39019;DHT22;24786;51.984;5.872;2023-09-19T07:47:56;15.40;99.90
39019;DHT22;24786;51.984;5.872;2023-09-19T07:50:21;15.50;99.90
39019;DHT22;24786;51.984;5.872;2023-09-19T07:52:47;15.60;99.90
39019;DHT22;24786;51.984;5.872;2023-09-19T07:55:13;15.60;99.90
39019;DHT22;24786;51.984;5.872;2023-09-19T07:57:42;15.60;99.90
39019;DHT22;24786;51.984;5.872;2023-09-19T08:00:07;15.70;99.90
39019;DHT22;24786;51.984;5.872;2023-09-19T08:02:36;15.60;99.90
39019;DHT22;24786;51.984;5.872;2023-09-19T08:05:03;15.70;99.90
39019;DHT22;24786;51.984;5.872;2023-09-19T08:07:34;15.70;99.90
39019;DHT22;24786;51.984;5.872;2023-09-19T08:10:02;15.80;99.90
39019;DHT22;24786;51.984;5.872;2023-09-19T08:12:28;15.80;99.90
39019;DHT22;24786;51.984;5.872;2023-09-19T08:14:55;15.80;99.90
39019;DHT22;24786;51.984;5.872;2023-09-19T08:17:21;15.90;99.90
39019;DHT22;24786;51.984;5.872;2023-09-19T08:19:48;15.90;99.90
39019;DHT22;24786;51.984;5.872;2023-09-19T08:22:14;16.00;99.90
39019;DHT22;24786;51.984;5.872;2023-09-19T08:24:42;16.00;99.90
39019;DHT22;24786;51.984;5.872;2023-09-19T08:27:08;16.00;99.90
39019;DHT22;24786;51.984;5.872;2023-09-19T08:29:35;16.10;99.90
39019;DHT22;24786;51.984;5.872;2023-09-19T08:32:01;16.20;99.90
39019;DHT22;24786;51.984;5.872;2023-09-19T08:34:26;16.20;99.90
39019;DHT22;24786;51.984;5.872;2023-09-19T08:36:54;16.30;99.90
39019;DHT22;24786;51.984;5.872;2023-09-19T08:39:23;16.30;99.90
39019;DHT22;24786;51.984;5.872;2023-09-19T08:41:49;16.30;99.90
39019;DHT22;24786;51.984;5.872;2023-09-19T08:44:15;16.40;99.90
39019;DHT22;24786;51.984;5.872;2023-09-19T08:46:43;16.40;99.90
39019;DHT22;24786;51.984;5.872;2023-09-19T08:49:13;16.50;99.90
39019;DHT22;24786;51.984;5.872;2023-09-19T08:51:47;16.50;99.90
39019;DHT22;24786;51.984;5.872;2023-09-19T08:54:21;16.60;99.90
39019;DHT22;24786;51.984;5.872;2023-09-19T08:56:47;16.60;99.90
39019;DHT22;24786;51.984;5.872;2023-09-19T08:59:13;16.70;99.90
39019;DHT22;24786;51.984;5.872;2023-09-19T09:01:39;16.70;99.90
39019;DHT22;24786;51.984;5.872;2023-09-19T09:04:09;16.80;99.90
39019;DHT22;24786;51.984;5.872;2023-09-19T09:06:38;16.80;99.90
39019;DHT22;24786;51.984;5.872;2023-09-19T09:09:04;16.80;99.90
39019;DHT22;24786;51.984;5.872;2023-09-19T09:11:33;16.90;99.90
39019;DHT22;24786;51.984;5.872;2023-09-19T09:13:59;16.90;99.90
39019;DHT22;24786;51.984;5.872;2023-09-19T09:16:25;17.00;99.90
39019;DHT22;24786;51.984;5.872;2023-09-19T09:18:51;17.00;99.90
39019;DHT22;24786;51.984;5.872;2023-09-19T09:21:20;17.00;99.90
39019;DHT22;24786;51.984;5.872;2023-09-19T09:23:47;17.10;99.90
39019;DHT22;24786;51.984;5.872;2023-09-19T09:26:12;17.20;99.90
39019;DHT22;24786;51.984;5.872;2023-09-19T09:28:44;17.20;99.90
39019;DHT22;24786;51.984;5.872;2023-09-19T09:31:21;17.30;99.90
39019;DHT22;24786;51.984;5.872;2023-09-19T09:33:52;17.40;99.90
39019;DHT22;24786;51.984;5.872;2023-09-19T09:36:19;17.40;99.90
39019;DHT22;24786;51.984;5.872;2023-09-19T09:38:59;17.50;99.90
39019;DHT22;24786;51.984;5.872;2023-09-19T09:41:35;17.50;99.90
39019;DHT22;24786;51.984;5.872;2023-09-19T09:44:15;17.50;99.90
39019;DHT22;24786;51.984;5.872;2023-09-19T09:46:43;17.60;99.90
39019;DHT22;24786;51.984;5.872;2023-09-19T09:49:23;17.70;99.90
39019;DHT22;24786;51.984;5.872;2023-09-19T09:52:01;17.90;99.90
39019;DHT22;24786;51.984;5.872;2023-09-19T09:54:32;18.00;99.90
39019;DHT22;24786;51.984;5.872;2023-09-19T09:57:07;18.00;99.90
39019;DHT22;24786;51.984;5.872;2023-09-19T09:59:43;18.10;99.90
39019;DHT22;24786;51.984;5.872;2023-09-19T10:02:14;18.10;99.90
39019;DHT22;24786;51.984;5.872;2023-09-19T10:04:45;18.10;99.90
39019;DHT22;24786;51.984;5.872;2023-09-19T10:07:50;18.20;99.90
39019;DHT22;24786;51.984;5.872;2023-09-19T10:10:14;18.10;99.90
39019;DHT22;24786;51.984;5.872;2023-09-19T10:12:50;18.10;99.90
39019;DHT22;24786;51.984;5.872;2023-09-19T10:15:21;18.20;99.90
39019;DHT22;24786;51.984;5.872;2023-09-19T10:17:50;18.20;99.90
39019;DHT22;24786;51.984;5.872;2023-09-19T10:20:24;18.30;99.90
39019;DHT22;24786;51.984;5.872;2023-09-19T10:22:59;18.30;99.90
39019;DHT22;24786;51.984;5.872;2023-09-19T10:25:25;18.30;99.90
39019;DHT22;24786;51.984;5.872;2023-09-19T10:27:51;18.40;99.90
39019;DHT22;24786;51.984;5.872;2023-09-19T10:30:18;18.40;99.90
39019;DHT22;24786;51.984;5.872;2023-09-19T10:32:45;18.40;99.90
39019;DHT22;24786;51.984;5.872;2023-09-19T10:35:12;18.60;99.90
39019;DHT22;24786;51.984;5.872;2023-09-19T10:37:40;18.60;99.90
39019;DHT22;24786;51.984;5.872;2023-09-19T10:40:06;18.90;99.90
39019;DHT22;24786;51.984;5.872;2023-09-19T10:42:34;18.80;99.90
39019;DHT22;24786;51.984;5.872;2023-09-19T10:45:03;18.80;99.90
39019;DHT22;24786;51.984;5.872;2023-09-19T10:47:32;18.80;99.90
39019;DHT22;24786;51.984;5.872;2023-09-19T10:49:58;18.90;99.90
39019;DHT22;24786;51.984;5.872;2023-09-19T10:52:24;18.90;99.90
39019;DHT22;24786;51.984;5.872;2023-09-19T10:54:51;19.10;99.90
39019;DHT22;24786;51.984;5.872;2023-09-19T10:57:22;19.00;99.90
39019;DHT22;24786;51.984;5.872;2023-09-19T11:00:05;19.00;99.90
39019;DHT22;24786;51.984;5.872;2023-09-19T11:03:16;19.00;99.90
39019;DHT22;24786;51.984;5.872;2023-09-19T11:05:34;19.00;99.90
39019;DHT22;24786;51.984;5.872;2023-09-19T11:08:00;18.90;99.90
39019;DHT22;24786;51.984;5.872;2023-09-19T11:10:45;18.80;99.90
39019;DHT22;24786;51.984;5.872;2023-09-19T11:13:28;18.70;99.90
39019;DHT22;24786;51.984;5.872;2023-09-19T11:21:38;18.60;99.90
39019;DHT22;24786;51.984;5.872;2023-09-19T11:26:44;18.90;99.90
39019;DHT22;24786;51.984;5.872;2023-09-19T11:31:50;18.80;99.90
39019;DHT22;24786;51.984;5.872;2023-09-19T11:37:01;18.70;99.90
39019;DHT22;24786;51.984;5.872;2023-09-19T11:39:29;18.70;99.90
39019;DHT22;24786;51.984;5.872;2023-09-19T11:41:54;18.70;99.90
39019;DHT22;24786;51.984;5.872;2023-09-19T11:44:31;18.70;99.90
39019;DHT22;24786;51.984;5.872;2023-09-19T11:46:56;18.70;99.90
39019;DHT22;24786;51.984;5.872;2023-09-19T11:49:28;18.80;99.90
39019;DHT22;24786;51.984;5.872;2023-09-19T11:51:57;18.90;99.90
39019;DHT22;24786;51.984;5.872;2023-09-19T11:54:23;19.10;99.90
39019;DHT22;24786;51.984;5.872;2023-09-19T11:56:53;19.20;99.90
39019;DHT22;24786;51.984;5.872;2023-09-19T11:59:23;19.30;99.90
39019;DHT22;24786;51.984;5.872;2023-09-19T12:01:52;19.40;99.90
39019;DHT22;24786;51.984;5.872;2023-09-19T12:04:44;19.40;99.90
39019;DHT22;24786;51.984;5.872;2023-09-19T12:09:44;19.60;99.90
39019;DHT22;24786;51.984;5.872;2023-09-19T12:12:28;19.70;99.90
39019;DHT22;24786;51.984;5.872;2023-09-19T12:14:54;19.80;99.90
39019;DHT22;24786;51.984;5.872;2023-09-19T12:17:20;19.80;99.90
39019;DHT22;24786;51.984;5.872;2023-09-19T12:19:55;19.80;99.90
39019;DHT22;24786;51.984;5.872;2023-09-19T12:22:21;19.80;99.90
39019;DHT22;24786;51.984;5.872;2023-09-19T12:24:47;19.80;99.90
39019;DHT22;24786;51.984;5.872;2023-09-19T12:27:13;19.70;99.90
39019;DHT22;24786;51.984;5.872;2023-09-19T12:32:07;19.80;99.90
39019;DHT22;24786;51.984;5.872;2023-09-19T12:34:33;19.90;99.90
39019;DHT22;24786;51.984;5.872;2023-09-19T12:37:10;19.90;99.90
39019;DHT22;24786;51.984;5.872;2023-09-19T12:39:46;19.80;99.90
39019;DHT22;24786;51.984;5.872;2023-09-19T12:42:17;19.50;99.90
39019;DHT22;24786;51.984;5.872;2023-09-19T12:44:47;19.50;99.90
39019;DHT22;24786;51.984;5.872;2023-09-19T12:47:14;19.40;99.90
39019;DHT22;24786;51.984;5.872;2023-09-19T12:52:26;19.20;99.90
39019;DHT22;24786;51.984;5.872;2023-09-19T12:54:59;19.10;99.90
39019;DHT22;24786;51.984;5.872;2023-09-19T12:57:26;19.10;99.90
39019;DHT22;24786;51.984;5.872;2023-09-19T12:59:52;19.10;99.90
39019;DHT22;24786;51.984;5.872;2023-09-19T13:02:18;19.10;99.90
39019;DHT22;24786;51.984;5.872;2023-09-19T13:04:52;19.00;99.90
39019;DHT22;24786;51.984;5.872;2023-09-19T13:10:03;19.00;99.90
39019;DHT22;24786;51.984;5.872;2023-09-19T13:12:36;19.00;99.90
39019;DHT22;24786;51.984;5.872;2023-09-19T13:15:09;18.90;99.90
39019;DHT22;24786;51.984;5.872;2023-09-19T13:17:45;19.00;99.90
39019;DHT22;24786;51.984;5.872;2023-09-19T13:20:23;19.00;99.90
39019;DHT22;24786;51.984;5.872;2023-09-19T13:22:57;19.10;99.90
39019;DHT22;24786;51.984;5.872;2023-09-19T13:25:31;19.10;99.90
39019;DHT22;24786;51.984;5.872;2023-09-19T13:27:58;19.10;99.90
39019;DHT22;24786;51.984;5.872;2023-09-19T13:30:26;19.10;99.90
39019;DHT22;24786;51.984;5.872;2023-09-19T13:32:51;19.10;99.90
39019;DHT22;24786;51.984;5.872;2023-09-19T13:35:18;19.00;99.90
39019;DHT22;24786;51.984;5.872;2023-09-19T13:37:44;19.00;99.90
39019;DHT22;24786;51.984;5.872;2023-09-19T13:40:12;19.00;99.90
39019;DHT22;24786;51.984;5.872;2023-09-19T13:42:38;19.00;99.90
39019;DHT22;24786;51.984;5.872;2023-09-19T13:45:03;18.90;99.90
39019;DHT22;24786;51.984;5.872;2023-09-19T13:47:32;18.90;99.90
39019;DHT22;24786;51.984;5.872;2023-09-19T13:50:02;18.90;99.90
39019;DHT22;24786;51.984;5.872;2023-09-19T13:52:29;18.90;99.90
39019;DHT22;24786;51.984;5.872;2023-09-19T13:54:55;18.90;99.90
39019;DHT22;24786;51.984;5.872;2023-09-19T13:57:25;18.90;99.90
39019;DHT22;24786;51.984;5.872;2023-09-19T13:59:53;19.00;99.90
39019;DHT22;24786;51.984;5.872;2023-09-19T14:02:20;19.10;99.90
39019;DHT22;24786;51.984;5.872;2023-09-19T14:04:48;19.10;99.90
39019;DHT22;24786;51.984;5.872;2023-09-19T14:07:13;19.20;99.90
39019;DHT22;24786;51.984;5.872;2023-09-19T14:09:40;19.20;99.90
39019;DHT22;24786;51.984;5.872;2023-09-19T14:12:05;19.40;99.90
39019;DHT22;24786;51.984;5.872;2023-09-19T14:14:32;19.50;99.90
39019;DHT22;24786;51.984;5.872;2023-09-19T14:16:57;19.60;99.90
39019;DHT22;24786;51.984;5.872;2023-09-19T14:19:29;19.60;99.90
39019;DHT22;24786;51.984;5.872;2023-09-19T14:21:54;19.70;99.90
39019;DHT22;24786;51.984;5.872;2023-09-19T14:24:22;19.70;99.90
39019;DHT22;24786;51.984;5.872;2023-09-19T14:26:48;19.80;99.90
39019;DHT22;24786;51.984;5.872;2023-09-19T14:29:14;19.80;99.90
39019;DHT22;24786;51.984;5.872;2023-09-19T14:31:40;19.70;99.90
39019;DHT22;24786;51.984;5.872;2023-09-19T14:34:06;19.70;99.90
39019;DHT22;24786;51.984;5.872;2023-09-19T14:36:31;19.60;99.90
39019;DHT22;24786;51.984;5.872;2023-09-19T14:38:58;19.50;99.90
39019;DHT22;24786;51.984;5.872;2023-09-19T14:41:23;19.50;99.90
39019;DHT22;24786;51.984;5.872;2023-09-19T14:43:54;19.40;99.90
39019;DHT22;24786;51.984;5.872;2023-09-19T14:46:20;19.40;99.90
39019;DHT22;24786;51.984;5.872;2023-09-19T14:48:46;19.30;99.90
39019;DHT22;24786;51.984;5.872;2023-09-19T14:51:12;19.30;99.90
39019;DHT22;24786;51.984;5.872;2023-09-19T14:53:39;19.30;99.90
39019;DHT22;24786;51.984;5.872;2023-09-19T14:56:04;19.40;99.90
39019;DHT22;24786;51.984;5.872;2023-09-19T14:58:31;19.30;99.90
39019;DHT22;24786;51.984;5.872;2023-09-19T15:01:05;19.30;99.90
39019;DHT22;24786;51.984;5.872;2023-09-19T15:03:32;19.20;99.90
39019;DHT22;24786;51.984;5.872;2023-09-19T15:06:01;19.20;99.90
39019;DHT22;24786;51.984;5.872;2023-09-19T15:08:27;19.10;99.90
39019;DHT22;24786;51.984;5.872;2023-09-19T15:10:52;19.20;99.90
39019;DHT22;24786;51.984;5.872;2023-09-19T15:13:18;19.10;99.90
39019;DHT22;24786;51.984;5.872;2023-09-19T15:15:44;19.10;99.90
39019;DHT22;24786;51.984;5.872;2023-09-19T15:18:12;19.10;99.90
39019;DHT22;24786;51.984;5.872;2023-09-19T15:20:42;19.00;99.90
39019;DHT22;24786;51.984;5.872;2023-09-19T15:23:08;19.00;99.90
39019;DHT22;24786;51.984;5.872;2023-09-19T15:25:34;18.90;99.90
39019;DHT22;24786;51.984;5.872;2023-09-19T15:28:00;18.90;99.90
39019;DHT22;24786;51.984;5.872;2023-09-19T15:30:36;18.90;99.90
39019;DHT22;24786;51.984;5.872;2023-09-19T15:33:02;18.90;99.90
39019;DHT22;24786;51.984;5.872;2023-09-19T15:35:27;18.90;99.90
39019;DHT22;24786;51.984;5.872;2023-09-19T15:37:52;18.90;99.90
39019;DHT22;24786;51.984;5.872;2023-09-19T15:40:21;18.90;99.90
39019;DHT22;24786;51.984;5.872;2023-09-19T15:42:49;18.80;99.90
39019;DHT22;24786;51.984;5.872;2023-09-19T15:45:14;18.90;99.90
39019;DHT22;24786;51.984;5.872;2023-09-19T15:47:41;18.80;99.90
39019;DHT22;24786;51.984;5.872;2023-09-19T15:50:07;18.80;99.90
39019;DHT22;24786;51.984;5.872;2023-09-19T15:52:35;18.80;99.90
39019;DHT22;24786;51.984;5.872;2023-09-19T15:55:02;18.80;99.90
39019;DHT22;24786;51.984;5.872;2023-09-19T15:57:28;18.80;99.90
39019;DHT22;24786;51.984;5.872;2023-09-19T15:59:54;18.70;99.90
39019;DHT22;24786;51.984;5.872;2023-09-19T16:02:19;18.70;99.90
39019;DHT22;24786;51.984;5.872;2023-09-19T16:04:45;18.70;99.90
39019;DHT22;24786;51.984;5.872;2023-09-19T16:07:10;18.80;99.90
39019;DHT22;24786;51.984;5.872;2023-09-19T16:09:36;18.70;99.90
39019;DHT22;24786;51.984;5.872;2023-09-19T16:12:01;18.80;99.90